createdAt,value
2023-05-08T00:04:52.242Z,1.75
2023-05-08T00:09:55.327Z,1.90
2023-05-08T00:14:58.113Z,1.73
2023-05-08T00:20:01.144Z,1.98
2023-05-08T00:25:06.727Z,1.70
2023-05-08T00:30:10.093Z,1.27
2023-05-08T00:35:12.876Z,1.38
2023-05-08T00:40:15.947Z,1.60
2023-05-08T00:45:18.709Z,1.77
2023-05-08T00:50:21.509Z,1.42
2023-05-08T00:55:25.273Z,1.60
2023-05-08T01:00:28.468Z,1.52
2023-05-08T01:05:32.409Z,1.40
2023-05-08T01:10:53.529Z,1.25
2023-05-08T01:16:20.739Z,1.20
2023-05-08T01:21:49.245Z,1.17
2023-05-08T01:27:17.118Z,1.60
2023-05-08T01:32:24.547Z,1.42
2023-05-08T01:37:43.908Z,1.20
2023-05-08T01:43:08.577Z,1.50
2023-05-08T01:48:17.440Z,1.23
2023-05-08T01:53:34.233Z,1.25
2023-05-08T01:58:38.628Z,1.45
2023-05-08T02:03:43.630Z,1.60
2023-05-08T02:13:50.336Z,1.25
2023-05-08T02:18:55.876Z,1.30
2023-05-08T02:23:59.721Z,1.90
2023-05-08T02:29:04.242Z,1.38
2023-05-08T02:34:09.662Z,0.95
2023-05-08T02:39:15.634Z,1.30
2023-05-08T02:44:19.002Z,1.30
2023-05-08T02:49:32.568Z,0.80
2023-05-08T02:54:44.611Z,1.20
2023-05-08T03:00:05.604Z,0.90
2023-05-08T03:05:19.886Z,1.10
2023-05-08T03:10:29.942Z,0.85
2023-05-08T03:15:45.950Z,0.65
2023-05-08T03:20:54.760Z,0.80
2023-05-08T03:25:59.707Z,1.13
2023-05-08T03:31:05.653Z,1.23
2023-05-08T03:36:08.961Z,1.25
2023-05-08T03:41:13.147Z,0.85
2023-05-08T03:46:17.951Z,0.73
2023-05-08T03:51:23.123Z,0.75
2023-05-08T03:56:28.830Z,1.33
2023-05-08T04:01:49.256Z,0.82
2023-05-08T04:07:18.939Z,1.08
2023-05-08T04:12:38.981Z,1.27
2023-05-08T04:17:46.016Z,0.90
2023-05-08T04:22:53.545Z,1.58
2023-05-08T04:27:59.140Z,1.17
2023-05-08T04:33:06.426Z,0.90
2023-05-08T04:38:10.292Z,1.08
2023-05-08T04:43:13.353Z,0.95
2023-05-08T04:48:16.200Z,0.90
2023-05-08T04:53:19.095Z,0.75
2023-05-08T04:58:21.939Z,0.80
2023-05-08T05:03:25.246Z,1.00
2023-05-08T05:08:28.303Z,1.15
2023-05-08T05:13:32.692Z,1.52
2023-05-08T05:18:36.005Z,1.00
2023-05-08T05:23:39.645Z,0.98
2023-05-08T05:28:42.629Z,2.00
2023-05-08T05:33:46.006Z,0.80
2023-05-08T05:38:49.021Z,0.70
2023-05-08T05:43:52.015Z,1.00
2023-05-08T05:48:55.353Z,0.77
2023-05-08T05:53:58.411Z,1.10
2023-05-08T05:59:02.197Z,0.88
2023-05-08T06:04:05.489Z,1.20
2023-05-08T06:09:09.522Z,0.95
2023-05-08T06:14:12.283Z,1.10
2023-05-08T06:19:15.666Z,0.82
2023-05-08T06:24:18.716Z,1.00
2023-05-08T06:29:22.319Z,1.02
2023-05-08T06:34:25.088Z,1.02
2023-05-08T06:39:28.052Z,1.10
2023-05-08T06:44:30.732Z,1.10
2023-05-08T06:49:33.551Z,1.00
2023-05-08T06:54:36.379Z,1.08
2023-05-08T06:59:39.211Z,1.23
2023-05-08T07:04:42.016Z,1.15
2023-05-08T07:09:44.814Z,1.10
2023-05-08T07:14:47.453Z,0.85
2023-05-08T07:19:51.508Z,1.17
2023-05-08T07:24:54.514Z,0.80
2023-05-08T07:30:05.095Z,0.90
2023-05-08T07:35:11.679Z,1.77
2023-05-08T07:45:17.077Z,0.93
2023-05-08T07:50:20.933Z,1.00
2023-05-08T07:55:23.896Z,1.27
2023-05-08T08:00:30.128Z,1.10
2023-05-08T08:05:33.226Z,1.00
2023-05-08T08:10:36.536Z,0.85
2023-05-08T08:15:40.433Z,1.10
2023-05-08T08:20:43.237Z,0.70
2023-05-08T08:25:48.318Z,0.55
2023-05-08T08:30:51.379Z,0.90
2023-05-08T08:35:54.207Z,1.10
2023-05-08T08:40:57.019Z,1.25
2023-05-08T08:46:01.176Z,0.90
2023-05-08T08:51:14.346Z,0.60
2023-05-08T08:56:17.488Z,1.00
2023-05-08T09:01:22.313Z,0.80
2023-05-08T09:06:27.911Z,0.70
2023-05-08T09:11:31.950Z,0.70
2023-05-08T09:16:34.976Z,0.70
2023-05-08T09:21:37.877Z,0.60
2023-05-08T09:26:42.452Z,1.00
2023-05-08T09:31:47.446Z,0.70
2023-05-08T09:36:50.532Z,0.73
2023-05-08T09:42:01.062Z,0.70
2023-05-08T09:47:30.207Z,0.82
2023-05-08T09:52:35.194Z,1.00
2023-05-08T09:57:41.661Z,0.52
2023-05-08T10:03:05.455Z,0.65
2023-05-08T10:08:21.554Z,0.93
2023-05-08T10:13:26.462Z,0.95
2023-05-08T10:18:36.286Z,0.70
2023-05-08T10:23:40.456Z,1.00
2023-05-08T10:29:09.104Z,0.75
2023-05-08T10:35:01.646Z,1.08
2023-05-08T10:40:06.711Z,0.63
2023-05-08T10:45:09.949Z,0.95
2023-05-08T10:50:22.100Z,1.33
2023-05-08T10:55:31.309Z,0.73
2023-05-08T11:00:54.304Z,0.63
2023-05-08T11:05:58.345Z,0.80
2023-05-08T11:11:12.257Z,1.00
2023-05-08T11:16:15.189Z,0.95
2023-05-08T11:21:24.446Z,0.63
2023-05-08T11:26:42.885Z,1.00
2023-05-08T11:31:53.130Z,0.98
2023-05-08T11:37:03.335Z,0.63
2023-05-08T11:42:24.959Z,0.85
2023-05-08T11:47:37.961Z,0.70
2023-05-08T11:52:43.580Z,1.08
2023-05-08T11:57:46.564Z,0.90
2023-05-08T12:02:49.406Z,0.80
2023-05-08T12:07:52.580Z,0.70
2023-05-08T12:12:55.336Z,0.68
2023-05-08T12:18:04.216Z,1.38
2023-05-08T12:23:07.470Z,1.13
2023-05-08T12:28:10.973Z,1.40
2023-05-08T12:33:14.645Z,1.00
2023-05-08T12:38:17.435Z,1.13
2023-05-08T12:43:20.161Z,1.00
2023-05-08T12:48:24.281Z,1.13
2023-05-08T12:53:30.938Z,0.70
2023-05-08T12:58:35.167Z,0.98
2023-05-08T13:08:42.256Z,0.65
2023-05-08T13:13:45.058Z,0.98
2023-05-08T13:18:47.868Z,0.32
2023-05-08T13:23:50.668Z,0.88
2023-05-08T13:28:56.520Z,0.50
2023-05-08T13:33:59.552Z,0.80
2023-05-08T13:39:02.548Z,0.85
2023-05-08T13:44:06.908Z,0.95
2023-05-08T13:49:09.492Z,0.60
2023-05-08T13:54:12.491Z,0.80
2023-05-08T13:59:16.427Z,0.80
2023-05-08T14:04:19.473Z,0.60
2023-05-08T14:09:22.139Z,0.90
2023-05-08T14:14:25.243Z,1.08
2023-05-08T14:19:28.178Z,0.73
2023-05-08T14:24:31.105Z,0.90
2023-05-08T14:29:34.740Z,0.65
2023-05-08T14:34:37.432Z,0.82
2023-05-08T14:39:40.084Z,0.90
2023-05-08T14:44:43.748Z,0.70
2023-05-08T14:49:46.479Z,0.50
2023-05-08T14:54:53.733Z,0.47
2023-05-08T14:59:57.141Z,1.00
2023-05-08T15:05:00.055Z,1.02
2023-05-08T15:10:04.267Z,0.52
2023-05-08T15:15:10.433Z,0.80
2023-05-08T15:20:13.217Z,0.80
2023-05-08T15:25:16.629Z,0.70
2023-05-08T15:30:20.735Z,0.82
2023-05-08T15:35:24.153Z,0.90
2023-05-08T15:40:26.961Z,0.73
2023-05-08T15:45:29.625Z,0.50
2023-05-08T15:50:32.759Z,0.43
2023-05-08T15:55:35.385Z,0.38
2023-05-08T16:00:44.862Z,0.70
2023-05-08T16:05:48.506Z,0.70
2023-05-08T16:10:51.540Z,0.70
2023-05-08T16:15:54.693Z,0.85
2023-05-08T16:20:57.502Z,0.60
2023-05-08T16:26:00.558Z,0.73
2023-05-08T16:31:05.142Z,0.60
2023-05-08T16:36:11.732Z,1.30
2023-05-08T16:41:14.763Z,0.90
2023-05-08T16:46:29.151Z,1.02
2023-05-08T16:51:33.240Z,0.90
2023-05-08T16:56:36.574Z,0.65
2023-05-08T17:01:39.288Z,0.85
2023-05-08T17:06:41.978Z,0.73
2023-05-08T17:11:47.848Z,0.95
2023-05-08T17:16:50.779Z,1.00
2023-05-08T17:21:54.203Z,1.02
2023-05-08T17:26:57.451Z,0.75
2023-05-08T17:32:00.057Z,1.38
2023-05-08T17:37:03.865Z,2.72
2023-05-08T17:42:10.182Z,1.85
2023-05-08T17:47:14.537Z,1.75
2023-05-08T17:52:17.732Z,2.05
2023-05-08T17:57:20.617Z,2.70
2023-05-08T18:02:26.426Z,1.45
2023-05-08T18:07:31.157Z,0.90
2023-05-08T18:12:33.954Z,1.20
2023-05-08T18:17:37.204Z,1.30
2023-05-08T18:22:40.074Z,1.55
2023-05-08T18:27:43.468Z,1.98
2023-05-08T18:32:46.573Z,1.20
2023-05-08T18:37:49.381Z,1.15
2023-05-08T18:42:52.419Z,0.70
2023-05-08T18:47:57.848Z,1.63
2023-05-08T18:53:00.681Z,2.92
2023-05-08T18:58:06.310Z,3.20
2023-05-08T19:03:08.902Z,2.58
2023-05-08T19:08:13.383Z,1.30
2023-05-08T19:13:16.265Z,1.80
2023-05-08T19:18:19.104Z,1.80
2023-05-08T19:23:22.068Z,1.50
2023-05-08T19:28:24.716Z,1.77
2023-05-08T19:33:27.507Z,1.83
2023-05-08T19:38:30.887Z,1.30
2023-05-08T19:43:34.767Z,1.38
2023-05-08T19:48:38.166Z,1.30
2023-05-08T19:53:41.111Z,1.70
2023-05-08T19:58:43.848Z,0.73
2023-05-08T20:03:47.360Z,1.08
2023-05-08T20:08:51.164Z,0.98
2023-05-08T20:13:53.744Z,1.30
2023-05-08T20:18:56.310Z,1.30
2023-05-08T20:23:59.731Z,1.00
2023-05-08T20:29:03.938Z,1.10
2023-05-08T20:34:08.887Z,1.27
2023-05-08T20:39:14.529Z,0.80
2023-05-08T20:44:19.427Z,0.85
2023-05-08T20:49:22.075Z,1.30
2023-05-08T20:54:25.187Z,1.00
2023-05-08T20:59:28.315Z,1.48
2023-05-08T21:04:31.648Z,1.70
2023-05-08T21:09:34.450Z,1.40
2023-05-08T21:14:37.780Z,1.45
2023-05-08T21:19:40.662Z,2.13
2023-05-08T21:24:46.044Z,1.45
2023-05-08T21:29:48.912Z,1.30
2023-05-08T21:34:51.941Z,1.45
2023-05-08T21:39:54.718Z,1.00
2023-05-08T21:44:59.295Z,1.30
2023-05-08T21:50:02.201Z,1.13
2023-05-08T21:55:08.877Z,1.20
2023-05-08T22:00:12.679Z,1.30
2023-05-08T22:05:24.730Z,0.93
2023-05-08T22:10:27.372Z,1.02
2023-05-08T22:15:30.904Z,1.10
2023-05-08T22:20:34.319Z,1.00
2023-05-08T22:25:37.422Z,1.17
2023-05-08T22:30:40.074Z,1.50
2023-05-08T22:35:42.766Z,1.30
2023-05-08T22:40:48.021Z,1.30
2023-05-08T22:45:50.910Z,1.45
2023-05-08T22:50:54.039Z,1.42
2023-05-08T22:55:56.558Z,1.83
2023-05-08T23:00:59.926Z,1.33
2023-05-08T23:06:02.794Z,1.80
2023-05-08T23:11:05.402Z,1.95
2023-05-08T23:16:08.252Z,1.15
2023-05-08T23:21:11.064Z,1.05
2023-05-08T23:26:13.948Z,1.55
2023-05-08T23:31:18.624Z,1.00
2023-05-08T23:36:22.198Z,1.60
2023-05-08T23:41:26.364Z,1.20
2023-05-08T23:46:29.153Z,0.88
2023-05-08T23:51:32.460Z,0.80
2023-05-08T23:56:35.204Z,1.02
